Time;durP1;ratioP1;P1;durP2;ratioP2;P2;SDS_P1;SDS_P2;PMS_P1;PMS_P2;Temp;Humidity;BMP_temperature;BMP_pressure;BME280_temperature;BME280_humidity;BME280_pressure;Samples;Min_cycle;Max_cycle;Signal;HPM_P1;HPM_P2
2021/05/08 00:01:22;;;;;;;0.17;0.17;;;;;;;11.13;100.00;99777.63;1733576;82;21168;-50
2021/05/08 00:03:50;;;;;;;0.62;0.62;;;;;;;11.12;100.00;99781.46;1732718;81;21182;-44
2021/05/08 00:06:18;;;;;;;0.42;0.42;;;;;;;11.12;100.00;99781.46;1756310;81;21117;-44
2021/05/08 00:08:46;;;;;;;0.62;0.62;;;;;;;11.12;100.00;99781.46;1763671;80;21452;-43
2021/05/08 00:11:13;;;;;;;1.05;0.95;;;;;;;11.13;100.00;99786.40;1756165;81;21482;-45
2021/05/08 00:13:41;;;;;;;0.68;0.40;;;;;;;11.13;100.00;99785.03;1732409;79;21154;-44
2021/05/08 00:16:09;;;;;;;0.25;0.25;;;;;;;11.11;100.00;99771.65;1762818;81;20975;-43
2021/05/08 00:18:37;;;;;;;1.35;1.12;;;;;;;11.10;100.00;99770.03;1761939;81;21213;-44
2021/05/08 00:21:05;;;;;;;0.60;0.60;;;;;;;11.09;100.00;99767.03;1762061;81;21110;-44
2021/05/08 00:23:33;;;;;;;1.35;0.78;;;;;;;11.10;100.00;99768.67;1762016;81;21913;-44
2021/05/08 00:26:02;;;;;;;1.22;0.95;;;;;;;11.10;100.00;99778.23;1748134;81;21131;-44
2021/05/08 00:28:30;;;;;;;0.45;0.45;;;;;;;11.12;100.00;99775.19;1729761;82;21293;-43
2021/05/08 00:30:58;;;;;;;0.33;0.30;;;;;;;11.14;100.00;99781.98;1729906;82;21126;-43
2021/05/08 00:33:25;;;;;;;0.53;0.53;;;;;;;11.15;100.00;99769.95;1728266;82;21146;-44
2021/05/08 00:35:53;;;;;;;0.40;0.40;;;;;;;11.17;100.00;99768.27;1718763;83;21146;-45
2021/05/08 00:38:20;;;;;;;0.62;0.62;;;;;;;11.17;100.00;99769.06;1717734;83;21422;-43
2021/05/08 00:40:48;;;;;;;0.70;0.70;;;;;;;11.18;100.00;99770.70;1720675;83;21133;-45
2021/05/08 00:43:16;;;;;;;1.25;0.55;;;;;;;11.19;100.00;99764.67;1720587;83;21174;-43
2021/05/08 00:45:44;;;;;;;1.20;1.12;;;;;;;11.21;100.00;99761.66;1720549;83;21173;-44
2021/05/08 00:48:13;;;;;;;0.08;0.08;;;;;;;11.22;100.00;99757.80;1720658;83;21695;-43
2021/05/08 00:50:41;;;;;;;0.40;0.40;;;;;;;11.22;100.00;99756.42;1721899;83;21542;-42
2021/05/08 00:53:10;;;;;;;0.90;0.88;;;;;;;11.21;100.00;99743.88;1722884;83;21127;-42
2021/05/08 00:55:39;;;;;;;0.72;0.72;;;;;;;11.20;100.00;99743.05;1722876;83;21162;-43
2021/05/08 00:58:07;;;;;;;1.60;1.17;;;;;;;11.18;100.00;99747.46;1671852;84;21166;-44
2021/05/08 01:00:36;;;;;;;0.90;0.85;;;;;;;11.19;100.00;99735.40;1720920;83;21130;-43
2021/05/08 01:03:06;;;;;;;0.20;0.20;;;;;;;11.18;100.00;99738.45;1720649;83;21493;-43
2021/05/08 01:05:34;;;;;;;0.30;0.30;;;;;;;11.17;100.00;99743.65;1717562;83;21593;-42
2021/05/08 01:08:04;;;;;;;0.20;0.20;;;;;;;11.18;100.00;99734.35;1720591;83;21149;-43
2021/05/08 01:10:32;;;;;;;1.12;0.20;;;;;;;11.17;100.00;99728.05;1720405;83;21196;-42
2021/05/08 01:13:00;;;;;;;0.42;0.42;;;;;;;11.18;100.00;99731.06;1720504;83;21165;-42
2021/05/08 01:15:29;;;;;;;2.87;1.95;;;;;;;11.18;100.00;99739.26;1722597;83;21126;-42
2021/05/08 01:17:57;;;;;;;0.60;0.40;;;;;;;11.17;100.00;99732.71;1756687;81;22017;-42
2021/05/08 01:20:25;;;;;;;0.35;0.35;;;;;;;11.17;100.00;99734.88;1756029;81;21106;-42
2021/05/08 01:22:54;;;;;;;0.75;0.75;;;;;;;11.18;100.00;99726.15;1724679;83;21124;-43
2021/05/08 01:25:26;;;;;;;1.65;0.57;;;;;;;11.19;100.00;99728.56;1701839;82;21230;-42
2021/05/08 01:27:57;;;;;;;0.28;0.17;;;;;;;11.17;100.00;99725.88;1692763;84;26006;-41
2021/05/08 01:30:35;;;;;;;0.33;0.33;;;;;;;11.16;100.00;99724.27;1698008;84;21119;-42
2021/05/08 01:33:05;;;;;;;0.62;0.62;;;;;;;11.16;100.00;99720.97;1692036;84;21148;-42
2021/05/08 01:35:34;;;;;;;0.45;0.45;;;;;;;11.16;100.00;99720.97;1712932;82;21150;-42
2021/05/08 01:38:02;;;;;;;0.20;0.20;;;;;;;11.15;100.00;99724.83;1690920;83;21131;-42
2021/05/08 01:40:38;;;;;;;0.90;0.40;;;;;;;11.14;100.00;99714.98;1707618;81;22404;-41
2021/05/08 01:43:07;;;;;;;0.45;0.37;;;;;;;11.14;100.00;99712.25;1748363;81;21123;-42
2021/05/08 01:45:35;;;;;;;0.10;0.10;;;;;;;11.13;100.00;99712.01;1751179;81;21437;-41
2021/05/08 01:48:05;;;;;;;1.00;0.65;;;;;;;11.13;100.00;99713.94;1751036;81;21115;-41
2021/05/08 01:50:33;;;;;;;0.42;0.40;;;;;;;11.12;100.00;99710.93;1750973;81;21161;-42
2021/05/08 01:53:00;;;;;;;0.30;0.30;;;;;;;11.10;100.00;99696.22;1705245;82;21434;-42
2021/05/08 01:55:28;;;;;;;0.30;0.30;;;;;;;11.09;100.00;99700.04;1715400;83;21127;-42
2021/05/08 01:57:58;;;;;;;0.37;0.20;;;;;;;11.09;100.00;99702.78;1715561;83;21186;-42
2021/05/08 02:00:34;;;;;;;0.30;0.30;;;;;;;11.08;100.00;99702.53;1715571;83;21159;-42
2021/05/08 02:03:02;;;;;;;0.60;0.60;;;;;;;11.07;100.00;99704.99;1715039;83;21045;-45
2021/05/08 02:05:33;;;;;;;0.20;0.20;;;;;;;11.07;100.00;99715.93;1715270;83;21487;-45
2021/05/08 02:08:04;;;;;;;0.40;0.40;;;;;;;11.06;100.00;99704.75;1717471;81;21123;-46
2021/05/08 02:10:33;;;;;;;0.42;0.42;;;;;;;11.04;100.00;99698.77;1715408;82;21107;-42
2021/05/08 02:13:05;;;;;;;1.27;0.70;;;;;;;11.02;100.00;99705.09;1700181;81;21580;-41
2021/05/08 02:15:33;;;;;;;0.30;0.30;;;;;;;11.00;100.00;99704.57;1706275;81;21162;-42
2021/05/08 02:18:03;;;;;;;0.50;0.50;;;;;;;11.00;100.00;99714.14;1741260;81;21099;-46
2021/05/08 02:20:33;;;;;;;0.60;0.60;;;;;;;10.99;100.00;99712.53;1698133;83;21162;-42
2021/05/08 02:23:03;;;;;;;0.10;0.10;;;;;;;10.97;100.00;99709.28;1725153;83;21134;-42
2021/05/08 02:25:32;;;;;;;0.15;0.15;;;;;;;10.96;100.00;99709.03;1714864;81;21173;-46
2021/05/08 02:28:00;;;;;;;0.20;0.20;;;;;;;10.98;100.00;99708.19;1726763;83;21164;-46
2021/05/08 02:30:31;;;;;;;0.30;0.30;;;;;;;10.97;100.00;99710.08;1707042;82;21640;-46
2021/05/08 02:33:00;;;;;;;0.30;0.30;;;;;;;10.97;100.00;99695.61;1736611;81;21127;-46
2021/05/08 02:35:28;;;;;;;1.22;0.93;;;;;;;10.96;100.00;99691.27;1752763;80;21440;-46
2021/05/08 02:37:56;;;;;;;0.20;0.20;;;;;;;10.97;100.00;99696.41;1755867;81;21106;-42
2021/05/08 02:40:27;;;;;;;0.40;0.30;;;;;;;10.97;100.00;99692.88;1754953;81;21675;-42
2021/05/08 02:42:56;;;;;;;0.10;0.10;;;;;;;10.97;100.00;99691.51;1756009;81;21125;-42
2021/05/08 02:45:24;;;;;;;0.40;0.30;;;;;;;10.98;100.00;99693.15;1756055;81;21552;-42
2021/05/08 02:47:52;;;;;;;0.40;0.20;;;;;;;10.98;100.00;99690.41;1724998;81;21425;-42
2021/05/08 02:50:21;;;;;;;0.28;0.28;;;;;;;10.98;100.00;99691.22;1730074;81;21196;-42
2021/05/08 02:52:51;;;;;;;0.25;0.25;;;;;;;10.99;100.00;99692.02;1729917;81;21126;-44
2021/05/08 02:55:18;;;;;;;1.77;0.90;;;;;;;11.01;100.00;99693.91;1755653;81;21177;-43
2021/05/08 02:57:46;;;;;;;0.60;0.60;;;;;;;11.01;100.00;99700.74;1729392;81;21214;-46
2021/05/08 03:00:15;;;;;;;0.47;0.40;;;;;;;11.01;100.00;99707.58;1676882;85;21477;-47
2021/05/08 03:02:44;;;;;;;0.60;0.60;;;;;;;11.02;100.00;99701.55;1753027;81;21549;-42
2021/05/08 03:05:12;;;;;;;0.35;0.35;;;;;;;11.04;100.00;99701.50;1728979;81;21577;-45
2021/05/08 03:07:40;;;;;;;0.62;0.62;;;;;;;11.04;100.00;99699.33;1724935;83;21109;-49
2021/05/08 03:10:10;;;;;;;0.37;0.37;;;;;;;11.05;100.00;99703.67;1756659;81;21539;-49
2021/05/08 03:12:38;;;;;;;0.10;0.10;;;;;;;11.06;100.00;99705.31;1726974;81;21115;-46
2021/05/08 03:15:07;;;;;;;0.47;0.17;;;;;;;11.07;100.00;99715.12;1725103;82;21585;-44
2021/05/08 03:17:35;;;;;;;0.72;0.13;;;;;;;11.07;100.00;99706.92;1757805;81;21125;-42
2021/05/08 03:20:04;;;;;;;0.10;0.10;;;;;;;11.06;100.00;99710.22;1741525;81;21113;-43
2021/05/08 03:22:32;;;;;;;0.35;0.35;;;;;;;11.07;100.00;99709.09;1757846;81;21109;-43
2021/05/08 03:25:00;;;;;;;0.45;0.45;;;;;;;11.07;100.00;99718.66;1757965;81;21521;-42
2021/05/08 03:27:28;;;;;;;0.10;0.10;;;;;;;11.08;100.00;99698.43;1726393;83;21326;-46
2021/05/08 03:29:56;;;;;;;0.20;0.20;;;;;;;11.07;100.00;99686.42;1757214;81;21113;-43
2021/05/08 03:32:24;;;;;;;5.83;2.08;;;;;;;11.08;100.00;99701.73;1747073;81;21169;-45
2021/05/08 03:34:54;;;;;;;1.25;0.78;;;;;;;11.08;100.00;99703.90;1767656;80;21226;-50
2021/05/08 03:37:24;;;;;;;0.35;0.35;;;;;;;11.09;100.00;99693.20;1787901;80;21103;-46
2021/05/08 03:39:52;;;;;;;1.42;0.30;;;;;;;11.08;100.00;99697.06;1754486;80;21172;-45
2021/05/08 03:42:20;;;;;;;0.13;0.13;;;;;;;11.08;100.00;99686.69;1786801;80;21843;-51
2021/05/08 03:44:48;;;;;;;0.28;0.28;;;;;;;11.07;100.00;99675.48;1755070;81;21134;-50
2021/05/08 03:47:17;;;;;;;0.53;0.53;;;;;;;11.08;100.00;99690.23;1787856;80;21456;-45
2021/05/08 03:49:46;;;;;;;0.47;0.25;;;;;;;11.09;100.00;99678.73;1754934;81;21147;-44
2021/05/08 03:52:13;;;;;;;0.78;0.70;;;;;;;11.09;100.00;99693.20;1757056;80;21143;-45
2021/05/08 03:54:41;;;;;;;0.72;0.70;;;;;;;11.09;100.00;99688.30;1752977;81;21310;-50
2021/05/08 03:57:08;;;;;;;0.75;0.68;;;;;;;11.09;100.00;99683.63;1753075;81;21132;-46
2021/05/08 03:59:36;;;;;;;0.10;0.10;;;;;;;11.10;100.00;99698.95;1786019;80;21110;-44
2021/05/08 04:02:03;;;;;;;0.30;0.30;;;;;;;11.09;100.00;99702.78;1755155;81;21014;-44
2021/05/08 04:04:31;;;;;;;0.23;0.23;;;;;;;11.10;100.00;99712.62;1788056;80;21126;-50
2021/05/08 04:06:58;;;;;;;0.10;0.10;;;;;;;11.10;100.00;99716.72;1787780;80;21538;-50
2021/05/08 04:09:26;;;;;;;1.35;0.68;;;;;;;11.08;100.00;99716.20;1787389;79;21138;-45
2021/05/08 04:11:54;;;;;;;0.55;0.55;;;;;;;11.08;100.00;99716.20;1754527;81;21204;-45
2021/05/08 04:14:23;;;;;;;0.25;0.25;;;;;;;11.07;100.00;99707.73;1787763;80;21127;-44
2021/05/08 04:16:51;;;;;;;0.47;0.45;;;;;;;11.06;100.00;99708.05;1791043;80;21168;-51
2021/05/08 04:19:19;;;;;;;0.08;0.08;;;;;;;11.05;100.00;99706.41;1790904;80;21181;-50
2021/05/08 04:21:47;;;;;;;2.08;0.57;;;;;;;11.04;100.00;99709.70;1784926;80;21103;-45
2021/05/08 04:24:15;;;;;;;1.85;0.88;;;;;;;11.02;100.00;99691.98;1719733;83;20961;-46
2021/05/08 04:26:43;;;;;;;0.55;0.55;;;;;;;11.02;100.00;99704.28;1721536;83;21577;-52
2021/05/08 04:29:10;;;;;;;0.60;0.60;;;;;;;11.01;100.00;99706.21;1726452;83;21150;-48
2021/05/08 04:31:38;;;;;;;0.62;0.55;;;;;;;11.01;100.00;99708.14;1767520;80;21600;-47
2021/05/08 04:34:06;;;;;;;0.95;0.95;;;;;;;11.01;100.00;99719.87;1789026;80;21554;-46
2021/05/08 04:36:33;;;;;;;0.10;0.10;;;;;;;11.00;100.00;99729.73;1789286;80;21151;-47
2021/05/08 04:39:01;;;;;;;0.98;0.75;;;;;;;10.99;100.00;99730.30;1789618;80;21142;-51
2021/05/08 04:41:29;;;;;;;0.82;0.68;;;;;;;10.99;100.00;99728.93;1776386;80;21145;-52
2021/05/08 04:43:57;;;;;;;0.33;0.33;;;;;;;10.98;100.00;99725.95;1749568;80;21150;-51
2021/05/08 04:46:25;;;;;;;0.40;0.40;;;;;;;10.96;100.00;99725.44;1789855;80;21539;-50
2021/05/08 04:48:54;;;;;;;2.02;0.90;;;;;;;10.95;100.00;99720.53;1723305;82;21577;-52
2021/05/08 04:51:26;;;;;;;1.05;0.70;;;;;;;10.97;100.00;99708.72;1726860;83;21138;-45
2021/05/08 04:53:53;;;;;;;0.30;0.25;;;;;;;10.96;100.00;99716.67;1727129;82;21185;-52
2021/05/08 04:56:23;;;;;;;2.65;1.60;;;;;;;10.97;100.00;99717.48;1725374;83;21677;-44
2021/05/08 04:58:50;;;;;;;1.30;0.45;;;;;;;10.97;100.00;99721.02;1727048;83;21157;-46
2021/05/08 05:01:20;;;;;;;0.68;0.68;;;;;;;10.98;100.00;99724.59;1708189;83;21162;-46
2021/05/08 05:03:48;;;;;;;0.30;0.30;;;;;;;10.97;100.00;99723.75;1725765;83;21181;-52
2021/05/08 05:06:16;;;;;;;1.65;1.05;;;;;;;10.98;100.00;99725.95;1718443;80;21153;-48
2021/05/08 05:08:44;;;;;;;1.12;0.78;;;;;;;11.00;100.00;99731.10;1784707;80;21139;-52
2021/05/08 05:11:12;;;;;;;0.62;0.62;;;;;;;11.01;100.00;99735.48;1784629;80;21416;-52
2021/05/08 05:13:40;;;;;;;1.02;0.65;;;;;;;11.02;100.00;99743.36;1728243;82;21716;-45
2021/05/08 05:16:09;;;;;;;0.50;0.50;;;;;;;11.03;100.00;99755.94;1703947;84;21390;-45
2021/05/08 05:18:38;;;;;;;0.60;0.57;;;;;;;11.04;100.00;99755.38;1704004;84;21224;-52
2021/05/08 05:21:06;;;;;;;0.30;0.30;;;;;;;11.04;100.00;99752.08;1704078;84;21178;-52
2021/05/08 05:23:33;;;;;;;0.55;0.40;;;;;;;11.04;100.00;99754.81;1692764;82;21166;-52
2021/05/08 05:26:01;;;;;;;1.80;1.50;;;;;;;11.04;100.00;99747.98;1790024;80;21138;-52
2021/05/08 05:28:30;;;;;;;0.03;0.03;;;;;;;11.04;100.00;99749.34;1772884;80;21516;-53
2021/05/08 05:30:58;;;;;;;0.37;0.37;;;;;;;11.04;100.00;99748.54;1759462;81;21138;-51
2021/05/08 05:33:26;;;;;;;0.17;0.10;;;;;;;11.05;100.00;99755.62;1783276;80;21155;-46
2021/05/08 05:35:55;;;;;;;0.75;0.75;;;;;;;11.07;100.00;99762.97;1790995;80;20984;-46
2021/05/08 05:38:23;;;;;;;1.30;0.50;;;;;;;11.08;100.00;99766.78;1789951;80;21150;-49
2021/05/08 05:40:52;;;;;;;0.68;0.68;;;;;;;11.08;100.00;99768.71;1771306;80;21158;-46
2021/05/08 05:43:20;;;;;;;0.82;0.35;;;;;;;11.08;100.00;99769.52;1756020;81;21154;-46
2021/05/08 05:45:48;;;;;;;0.80;0.80;;;;;;;11.07;100.00;99769.25;1752902;81;21155;-52
2021/05/08 05:48:19;;;;;;;0.10;0.10;;;;;;;11.07;100.00;99767.88;1750878;79;21134;-54
2021/05/08 05:50:47;;;;;;;1.00;1.00;;;;;;;11.08;100.00;99776.35;1754975;81;21137;-49
2021/05/08 05:53:16;;;;;;;0.62;0.62;;;;;;;11.06;100.00;99770.37;1729161;81;21157;-48
2021/05/08 05:55:44;;;;;;;0.82;0.78;;;;;;;11.04;100.00;99763.02;1760628;81;21164;-47
2021/05/08 05:58:12;;;;;;;0.62;0.62;;;;;;;11.04;100.00;99757.55;1730069;81;21611;-48
2021/05/08 06:00:40;;;;;;;0.10;0.10;;;;;;;11.03;100.00;99760.03;1760399;80;21122;-54
2021/05/08 06:03:08;;;;;;;0.78;0.75;;;;;;;11.01;100.00;99757.34;1760696;81;21098;-45
2021/05/08 06:05:37;;;;;;;1.55;0.62;;;;;;;11.01;100.00;99751.88;1753471;80;21517;-47
2021/05/08 06:08:05;;;;;;;0.75;0.72;;;;;;;11.00;100.00;99752.97;1760219;81;21134;-46
2021/05/08 06:10:34;;;;;;;2.45;0.85;;;;;;;11.01;100.00;99755.42;1760830;80;21380;-53
2021/05/08 06:13:02;;;;;;;0.53;0.53;;;;;;;11.01;100.00;99752.69;1760907;81;21525;-48
2021/05/08 06:15:31;;;;;;;0.88;0.88;;;;;;;11.01;100.00;99744.48;1760687;80;21229;-45
2021/05/08 06:17:59;;;;;;;0.60;0.60;;;;;;;11.03;100.00;99749.10;1760865;81;21454;-46
2021/05/08 06:20:27;;;;;;;0.72;0.72;;;;;;;11.07;100.00;99755.58;1760095;80;21130;-52
2021/05/08 06:22:57;;;;;;;1.70;1.60;;;;;;;11.09;100.00;99751.19;1760357;81;21117;-51
2021/05/08 06:25:24;;;;;;;0.93;0.72;;;;;;;11.12;100.00;99758.22;1760518;80;21173;-52
2021/05/08 06:27:54;;;;;;;0.95;0.60;;;;;;;11.17;100.00;99757.33;1760539;81;21118;-51
2021/05/08 06:30:22;;;;;;;0.82;0.82;;;;;;;11.22;100.00;99748.22;1787879;79;21000;-47
2021/05/08 06:32:49;;;;;;;1.12;1.07;;;;;;;11.26;100.00;99748.69;1787645;80;21581;-52
2021/05/08 06:35:17;;;;;;;1.27;0.80;;;;;;;11.31;100.00;99740.95;1787254;79;21106;-52
2021/05/08 06:37:51;;;;;;;0.93;0.85;;;;;;;11.36;100.00;99735.39;1783250;80;21111;-51
2021/05/08 06:40:22;;;;;;;3.35;1.15;;;;;;;11.42;100.00;99732.80;1723848;82;21142;-47
2021/05/08 06:42:50;;;;;;;0.53;0.53;;;;;;;11.50;100.00;99731.28;1725556;83;21621;-46
2021/05/08 06:45:18;;;;;;;1.67;1.15;;;;;;;11.54;100.00;99722.73;1725590;82;21608;-46
2021/05/08 06:47:51;;;;;;;3.25;1.20;;;;;;;11.58;100.00;99725.93;1725526;83;21477;-51
2021/05/08 06:50:19;;;;;;;1.45;1.27;;;;;;;11.62;100.00;99729.69;1725539;82;21129;-51
2021/05/08 06:52:47;;;;;;;0.33;0.33;;;;;;;11.63;100.00;99735.41;1725544;83;21133;-45
2021/05/08 06:55:14;;;;;;;0.62;0.62;;;;;;;11.65;100.00;99738.38;1730714;81;21119;-45
2021/05/08 06:57:42;;;;;;;9.08;2.58;;;;;;;11.66;100.00;99746.30;1755640;81;21537;-50
2021/05/08 07:00:13;;;;;;;4.30;1.05;;;;;;;11.66;100.00;99749.60;1755565;81;20991;-46
2021/05/08 07:02:41;;;;;;;2.05;1.20;;;;;;;11.63;100.00;99764.14;1755617;81;21139;-51
2021/05/08 07:05:10;;;;;;;2.20;1.42;;;;;;;11.61;100.00;99767.73;1755518;81;21126;-46
2021/05/08 07:07:39;;;;;;;1.62;1.52;;;;;;;11.59;100.00;99765.85;1755863;81;21487;-51
2021/05/08 07:10:08;;;;;;;2.15;1.32;;;;;;;11.57;100.00;99773.58;1755769;81;21133;-51
2021/05/08 07:12:36;;;;;;;1.55;1.02;;;;;;;11.55;100.00;99782.64;1783113;80;21126;-45
2021/05/08 07:15:05;;;;;;;1.35;1.25;;;;;;;11.55;100.00;99789.48;1783332;80;21287;-44
2021/05/08 07:17:33;;;;;;;1.17;1.10;;;;;;;11.54;100.00;99796.05;1750872;81;21412;-45
2021/05/08 07:20:03;;;;;;;0.90;0.90;;;;;;;11.54;100.00;99804.81;1783353;80;21114;-47
2021/05/08 07:22:30;;;;;;;1.95;0.98;;;;;;;11.52;100.00;99803.77;1750682;81;21592;-51
2021/05/08 07:24:58;;;;;;;1.52;1.37;;;;;;;11.53;100.00;99805.94;1783513;80;21007;-52
2021/05/08 07:27:25;;;;;;;0.82;0.82;;;;;;;11.53;100.00;99819.63;1754291;81;21457;-52
2021/05/08 07:29:54;;;;;;;1.30;1.00;;;;;;;11.54;100.00;99821.23;1755834;81;21130;-52
2021/05/08 07:32:21;;;;;;;1.02;1.00;;;;;;;11.53;100.00;99823.73;1750378;81;21138;-46
2021/05/08 07:34:50;;;;;;;3.17;0.82;;;;;;;11.51;100.00;99823.21;1740694;81;21665;-53
2021/05/08 07:37:19;;;;;;;2.60;0.95;;;;;;;11.52;100.00;99833.87;1755749;81;21625;-53
2021/05/08 07:39:47;;;;;;;1.70;1.05;;;;;;;11.51;100.00;99832.22;1727591;81;21001;-45
2021/05/08 07:42:15;;;;;;;0.85;0.85;;;;;;;11.49;100.00;99831.70;1747561;81;21134;-47
2021/05/08 07:44:44;;;;;;;0.55;0.55;;;;;;;11.49;100.00;99828.97;1783216;80;21103;-45
2021/05/08 07:47:13;;;;;;;1.20;1.02;;;;;;;11.50;100.00;99837.45;1740764;81;21158;-52
2021/05/08 07:49:41;;;;;;;0.75;0.55;;;;;;;11.50;100.00;99836.09;1754411;81;21640;-48
2021/05/08 07:52:10;;;;;;;0.33;0.20;;;;;;;11.53;100.00;99842.31;1725449;83;21122;-46
2021/05/08 07:54:38;;;;;;;0.80;0.80;;;;;;;11.54;100.00;99838.45;1722135;83;21111;-53
2021/05/08 07:57:05;;;;;;;2.25;1.20;;;;;;;11.58;100.00;99842.22;1723829;83;20983;-53
2021/05/08 07:59:33;;;;;;;0.72;0.65;;;;;;;11.62;100.00;99844.62;1725565;81;21148;-53
2021/05/08 08:02:00;;;;;;;1.02;0.70;;;;;;;11.64;100.00;99844.30;1750005;81;21566;-47
2021/05/08 08:04:28;;;;;;;1.27;1.17;;;;;;;11.69;100.00;99846.14;1729393;81;21189;-46
2021/05/08 08:06:56;;;;;;;1.85;1.60;;;;;;;11.71;100.00;99844.73;1753535;81;21446;-45
2021/05/08 08:09:23;;;;;;;1.32;1.07;;;;;;;11.74;100.00;99844.68;1755632;81;21114;-53
2021/05/08 08:11:51;;;;;;;2.08;0.80;;;;;;;11.77;100.00;99854.48;1755658;81;21581;-53
2021/05/08 08:14:19;;;;;;;0.88;0.78;;;;;;;11.81;100.00;99850.58;1775129;80;22017;-46
2021/05/08 08:16:49;;;;;;;1.30;0.78;;;;;;;11.84;100.00;99858.17;1783386;80;22040;-53
2021/05/08 08:19:17;;;;;;;1.57;1.47;;;;;;;11.87;100.00;99855.42;1753950;81;21095;-53
2021/05/08 08:21:45;;;;;;;0.78;0.75;;;;;;;11.90;100.00;99858.94;1753262;81;21175;-47
2021/05/08 08:24:15;;;;;;;3.83;1.00;;;;;;;11.93;100.00;99861.07;1755302;81;21410;-47
2021/05/08 08:26:43;;;;;;;1.42;1.30;;;;;;;11.97;100.00;99850.58;1755692;81;21158;-46
2021/05/08 08:29:10;;;;;;;1.90;1.52;;;;;;;12.01;100.00;99850.21;1755196;81;21103;-53
2021/05/08 08:31:38;;;;;;;2.67;2.10;;;;;;;12.07;100.00;99837.78;1755120;81;21126;-52
2021/05/08 08:34:06;;;;;;;4.70;2.70;;;;;;;12.11;100.00;99848.40;1783337;80;21498;-46
2021/05/08 08:36:34;;;;;;;0.90;0.90;;;;;;;12.15;100.00;99852.97;1755798;81;21167;-47
2021/05/08 08:39:03;;;;;;;3.65;2.72;;;;;;;12.22;100.00;99859.41;1787067;80;21754;-52
2021/05/08 08:41:31;;;;;;;3.58;1.95;;;;;;;12.32;100.00;99847.44;1768236;80;21118;-46
2021/05/08 08:43:58;;;;;;;1.57;1.12;;;;;;;12.43;100.00;99846.09;1753520;81;21490;-52
2021/05/08 08:46:26;;;;;;;1.55;1.25;;;;;;;12.58;100.00;99851.81;1786649;80;21215;-52
2021/05/08 08:48:53;;;;;;;3.27;2.22;;;;;;;12.70;100.00;99857.58;1788021;80;21143;-52
2021/05/08 08:51:21;;;;;;;3.17;1.57;;;;;;;12.78;100.00;99856.84;1787782;80;21128;-45
2021/05/08 08:53:49;;;;;;;6.12;2.02;;;;;;;12.79;100.00;99861.22;1759889;80;21198;-53
2021/05/08 08:56:17;;;;;;;6.12;2.50;;;;;;;12.72;100.00;99866.88;1752964;81;21153;-53
2021/05/08 08:58:49;;;;;;;5.28;2.08;;;;;;;12.57;100.00;99868.02;1753355;81;21155;-54
2021/05/08 09:01:18;;;;;;;6.42;4.12;;;;;;;12.46;100.00;99866.03;1753327;81;21185;-51
2021/05/08 09:03:46;;;;;;;3.35;2.05;;;;;;;12.34;100.00;99876.16;1787773;80;21159;-48
2021/05/08 09:06:14;;;;;;;3.02;2.72;;;;;;;12.28;100.00;99869.70;1775454;78;21164;-52
2021/05/08 09:08:43;;;;;;;3.70;2.83;;;;;;;12.22;100.00;99878.02;1779094;78;21079;-52
2021/05/08 09:11:24;;;;;;;2.60;1.70;;;;;;;12.20;100.00;99878.08;1750732;81;21569;-51
2021/05/08 09:14:16;;;;;;;5.22;3.40;;;;;;;12.23;100.00;99885.68;1751124;80;21146;-50
2021/05/08 09:17:11;;;;;;;4.20;2.50;;;;;;;12.31;100.00;99892.38;1885947;74;22779;-44
2021/05/08 09:19:48;;;;;;;4.60;2.60;;;;;;;12.30;100.00;99898.98;1842568;77;21309;-44
2021/05/08 09:22:40;;;;;;;2.50;2.17;;;;;;;12.27;100.00;99905.88;1844780;77;21582;-49
2021/05/08 09:25:17;;;;;;;6.62;3.45;;;;;;;12.19;100.00;99912.88;1836915;75;21660;-48
2021/05/08 09:27:57;;;;;;;3.80;2.70;;;;;;;12.09;100.00;99913.08;1798677;78;21138;-48
2021/05/08 09:30:29;;;;;;;3.45;1.67;;;;;;;11.93;100.00;99926.22;1811191;78;21117;-42
2021/05/08 09:33:02;;;;;;;2.27;1.62;;;;;;;11.78;100.00;99926.46;1790279;78;21190;-47
2021/05/08 09:35:35;;;;;;;3.87;2.35;;;;;;;11.68;100.00;99926.64;1773042;78;21183;-46
2021/05/08 09:38:11;;;;;;;4.22;2.55;;;;;;;11.73;100.00;99933.39;1832847;77;21208;-41
2021/05/08 09:40:43;;;;;;;3.10;1.45;;;;;;;11.80;100.00;99936.56;1786559;78;21422;-44
2021/05/08 09:43:16;;;;;;;1.37;1.20;;;;;;;11.89;100.00;99937.50;1799544;78;21636;-45
2021/05/08 09:45:45;;;;;;;3.08;1.95;;;;;;;11.95;100.00;99941.80;1785238;80;21652;-45
2021/05/08 09:48:31;;;;;;;3.77;2.08;;;;;;;11.98;100.00;99939.81;1788921;79;21163;-46
2021/05/08 09:51:27;;;;;;;1.62;1.52;;;;;;;11.96;100.00;99940.67;1797254;78;21139;-41
2021/05/08 09:53:57;;;;;;;5.72;2.80;;;;;;;11.94;100.00;99937.97;1780213;78;21127;-45
2021/05/08 09:56:39;;;;;;;2.27;1.40;;;;;;;11.74;100.00;99961.01;1784501;80;21651;-41
2021/05/08 09:59:36;;;;;;;4.30;1.35;;;;;;;11.52;100.00;99977.52;1788227;80;21125;-42
2021/05/08 10:02:10;;;;;;;5.08;2.58;;;;;;;11.31;100.00;99987.13;1785440;79;21149;-41
2021/05/08 10:04:50;;;;;;;3.47;1.75;;;;;;;11.09;100.00;99997.27;1798033;79;21877;-41
2021/05/08 10:07:22;;;;;;;3.72;2.00;;;;;;;10.94;100.00;99997.72;1814836;79;21122;-41
2021/05/08 10:09:59;;;;;;;1.25;1.25;;;;;;;10.89;100.00;100012.01;1799094;79;21157;-41
2021/05/08 10:12:29;;;;;;;4.70;1.85;;;;;;;10.91;100.00;100009.80;1792159;79;21118;-41
2021/05/08 10:14:58;;;;;;;4.37;3.22;;;;;;;10.94;100.00;100009.21;1815717;78;21111;-47
2021/05/08 10:17:29;;;;;;;3.95;2.85;;;;;;;10.97;100.00;100012.72;1819094;78;21121;-44
2021/05/08 10:20:08;;;;;;;1.47;1.37;;;;;;;10.91;100.00;100006.52;1808623;78;21130;-45
2021/05/08 10:22:49;;;;;;;3.45;1.30;;;;;;;10.83;100.00;100019.99;1793213;78;21098;-45
2021/05/08 10:25:17;;;;;;;1.10;1.10;;;;;;;10.80;100.00;100026.05;1818616;77;21147;-45
2021/05/08 10:27:46;;;;;;;1.50;0.98;;;;;;;10.81;100.00;100044.09;1805952;77;21132;-45
2021/05/08 10:30:18;;;;;;;1.72;1.07;;;;;;;10.85;100.00;100053.32;1796446;79;21154;-45
2021/05/08 10:32:48;;;;;;;4.35;1.87;;;;;;;10.95;100.00;100047.73;1820405;78;21122;-45
2021/05/08 10:35:26;;;;;;;1.35;1.10;;;;;;;11.03;100.00;100064.88;1816820;78;21412;-45
2021/05/08 10:38:23;;;;;;;1.00;0.70;;;;;;;11.03;98.30;100066.25;1789444;78;21129;-45
2021/05/08 10:41:06;;;;;;;1.37;0.85;;;;;;;11.01;99.50;100064.35;1809056;77;21131;-45
2021/05/08 10:43:57;;;;;;;0.93;0.70;;;;;;;10.88;97.53;100078.17;1796882;78;21154;-44
2021/05/08 10:46:27;;;;;;;0.82;0.33;;;;;;;10.71;96.67;100098.30;1786390;78;21145;-45
2021/05/08 10:49:13;;;;;;;0.95;0.80;;;;;;;10.54;95.96;100096.81;1829388;78;21453;-45
2021/05/08 10:51:59;;;;;;;0.10;0.10;;;;;;;10.45;95.31;100103.99;1835378;77;21165;-45
2021/05/08 10:54:45;;;;;;;0.17;0.17;;;;;;;10.32;95.49;100107.39;1817357;78;21248;-45
2021/05/08 10:57:25;;;;;;;0.23;0.23;;;;;;;10.26;95.58;100112.06;1823336;78;21138;-45
2021/05/08 11:00:12;;;;;;;0.30;0.30;;;;;;;10.24;96.31;100114.26;1814222;78;21085;-45
2021/05/08 11:02:49;;;;;;;0.42;0.42;;;;;;;10.22;95.54;100110.99;1826648;78;20932;-45
2021/05/08 11:05:24;;;;;;;0.57;0.57;;;;;;;10.24;95.99;100114.81;1818368;78;21205;-45
2021/05/08 11:07:52;;;;;;;0.60;0.60;;;;;;;10.24;95.98;100113.45;1820618;78;21437;-45
2021/05/08 11:10:38;;;;;;;0.55;0.55;;;;;;;10.29;96.07;100112.07;1792106;78;21205;-45
2021/05/08 11:13:14;;;;;;;0.40;0.40;;;;;;;10.35;95.89;100106.81;1818573;78;21106;-47
2021/05/08 11:15:54;;;;;;;0.13;0.13;;;;;;;10.49;96.17;100100.16;1815292;78;21142;-45
2021/05/08 11:18:34;;;;;;;0.50;0.50;;;;;;;10.65;96.11;100101.62;1801561;78;21423;-45
2021/05/08 11:21:04;;;;;;;0.68;0.68;;;;;;;10.91;95.96;100108.21;1793703;78;21648;-47
2021/05/08 11:23:50;;;;;;;0.28;0.28;;;;;;;11.18;96.15;100109.81;1816659;77;21115;-45
2021/05/08 11:26:29;;;;;;;0.20;0.20;;;;;;;11.47;95.49;100103.42;1806958;78;21146;-45
2021/05/08 11:29:11;;;;;;;0.17;0.17;;;;;;;11.71;94.46;100122.53;1797218;78;21417;-45
2021/05/08 11:31:41;;;;;;;0.10;0.10;;;;;;;11.77;90.68;100118.63;1802385;78;21387;-45
2021/05/08 11:34:25;;;;;;;0.10;0.10;;;;;;;11.74;88.35;100124.67;1788035;80;21166;-45
2021/05/08 11:37:03;;;;;;;0.10;0.10;;;;;;;11.68;87.23;100111.37;1790909;80;21180;-45
2021/05/08 11:39:40;;;;;;;0.15;0.15;;;;;;;11.56;83.86;100115.34;1793456;79;21442;-45